sensor_id;sensor_type;location;lat;lon;timestamp;P1;P2;P0
12542;PMS3003;6337;49.556;25.594;2023-07-02T00:00:43;18.00;14.87;
12542;PMS3003;6337;49.556;25.594;2023-07-02T00:03:11;16.90;13.67;
12542;PMS3003;6337;49.556;25.594;2023-07-02T00:05:39;16.60;13.90;
12542;PMS3003;6337;49.556;25.594;2023-07-02T00:08:07;17.77;15.60;
12542;PMS3003;6337;49.556;25.594;2023-07-02T00:10:35;18.43;14.03;
12542;PMS3003;6337;49.556;25.594;2023-07-02T00:13:02;19.03;15.83;
12542;PMS3003;6337;49.556;25.594;2023-07-02T00:15:33;26.60;18.13;
12542;PMS3003;6337;49.556;25.594;2023-07-02T00:18:00;21.23;17.83;
12542;PMS3003;6337;49.556;25.594;2023-07-02T00:20:28;18.40;16.50;
12542;PMS3003;6337;49.556;25.594;2023-07-02T00:23:00;19.23;16.30;
12542;PMS3003;6337;49.556;25.594;2023-07-02T00:25:28;20.30;14.70;
12542;PMS3003;6337;49.556;25.594;2023-07-02T00:27:56;18.30;14.63;
12542;PMS3003;6337;49.556;25.594;2023-07-02T00:30:23;17.53;15.27;
12542;PMS3003;6337;49.556;25.594;2023-07-02T00:32:55;17.30;15.47;
12542;PMS3003;6337;49.556;25.594;2023-07-02T00:35:23;29.27;15.47;
12542;PMS3003;6337;49.556;25.594;2023-07-02T00:37:50;16.90;15.10;
12542;PMS3003;6337;49.556;25.594;2023-07-02T00:40:19;16.13;14.17;
12542;PMS3003;6337;49.556;25.594;2023-07-02T00:42:52;17.27;14.50;
12542;PMS3003;6337;49.556;25.594;2023-07-02T00:45:21;20.97;17.20;
12542;PMS3003;6337;49.556;25.594;2023-07-02T00:47:52;17.30;15.70;
12542;PMS3003;6337;49.556;25.594;2023-07-02T00:50:23;21.40;17.53;
12542;PMS3003;6337;49.556;25.594;2023-07-02T00:52:52;25.07;19.33;
12542;PMS3003;6337;49.556;25.594;2023-07-02T00:55:21;27.43;21.93;
12542;PMS3003;6337;49.556;25.594;2023-07-02T00:57:50;21.03;18.77;
12542;PMS3003;6337;49.556;25.594;2023-07-02T01:00:18;26.90;20.80;
12542;PMS3003;6337;49.556;25.594;2023-07-02T01:02:53;25.23;18.77;
12542;PMS3003;6337;49.556;25.594;2023-07-02T01:05:31;27.57;19.93;
12542;PMS3003;6337;49.556;25.594;2023-07-02T01:08:07;26.97;21.00;
12542;PMS3003;6337;49.556;25.594;2023-07-02T01:10:37;28.30;19.47;
12542;PMS3003;6337;49.556;25.594;2023-07-02T01:13:11;20.53;18.37;
12542;PMS3003;6337;49.556;25.594;2023-07-02T01:15:40;32.13;19.57;
12542;PMS3003;6337;49.556;25.594;2023-07-02T01:18:11;23.30;19.03;
12542;PMS3003;6337;49.556;25.594;2023-07-02T01:20:41;20.30;17.87;
12542;PMS3003;6337;49.556;25.594;2023-07-02T01:23:12;19.63;16.30;
12542;PMS3003;6337;49.556;25.594;2023-07-02T01:25:44;26.17;18.17;
12542;PMS3003;6337;49.556;25.594;2023-07-02T01:28:12;21.90;18.40;
12542;PMS3003;6337;49.556;25.594;2023-07-02T01:30:40;22.33;18.23;
12542;PMS3003;6337;49.556;25.594;2023-07-02T01:33:09;30.20;20.00;
12542;PMS3003;6337;49.556;25.594;2023-07-02T01:35:41;25.17;21.30;
12542;PMS3003;6337;49.556;25.594;2023-07-02T01:38:09;25.70;20.07;
12542;PMS3003;6337;49.556;25.594;2023-07-02T01:40:37;29.17;20.80;
12542;PMS3003;6337;49.556;25.594;2023-07-02T01:43:05;27.30;20.43;
12542;PMS3003;6337;49.556;25.594;2023-07-02T01:45:33;27.33;21.03;
12542;PMS3003;6337;49.556;25.594;2023-07-02T01:48:01;24.47;19.20;
12542;PMS3003;6337;49.556;25.594;2023-07-02T01:50:29;28.30;21.63;
12542;PMS3003;6337;49.556;25.594;2023-07-02T01:52:59;26.57;18.57;
12542;PMS3003;6337;49.556;25.594;2023-07-02T01:55:29;21.37;19.17;
12542;PMS3003;6337;49.556;25.594;2023-07-02T01:57:57;26.90;21.30;
12542;PMS3003;6337;49.556;25.594;2023-07-02T02:00:25;26.07;20.90;
12542;PMS3003;6337;49.556;25.594;2023-07-02T02:02:52;26.73;21.90;
12542;PMS3003;6337;49.556;25.594;2023-07-02T02:05:20;29.93;22.03;
12542;PMS3003;6337;49.556;25.594;2023-07-02T02:07:49;27.80;21.63;
12542;PMS3003;6337;49.556;25.594;2023-07-02T02:10:20;21.67;17.90;
12542;PMS3003;6337;49.556;25.594;2023-07-02T02:12:48;25.10;19.60;
12542;PMS3003;6337;49.556;25.594;2023-07-02T02:15:15;24.90;20.13;
12542;PMS3003;6337;49.556;25.594;2023-07-02T02:17:44;22.67;19.27;
12542;PMS3003;6337;49.556;25.594;2023-07-02T02:20:12;27.43;20.50;
12542;PMS3003;6337;49.556;25.594;2023-07-02T02:22:40;24.30;19.77;
12542;PMS3003;6337;49.556;25.594;2023-07-02T02:25:09;23.93;17.63;
12542;PMS3003;6337;49.556;25.594;2023-07-02T02:27:41;21.83;19.33;
12542;PMS3003;6337;49.556;25.594;2023-07-02T02:30:11;23.90;19.63;
12542;PMS3003;6337;49.556;25.594;2023-07-02T02:32:40;29.27;21.23;
12542;PMS3003;6337;49.556;25.594;2023-07-02T02:35:08;21.10;18.27;
12542;PMS3003;6337;49.556;25.594;2023-07-02T02:37:37;22.57;20.07;
12542;PMS3003;6337;49.556;25.594;2023-07-02T02:40:07;42.67;21.90;
12542;PMS3003;6337;49.556;25.594;2023-07-02T02:42:41;28.83;19.23;
12542;PMS3003;6337;49.556;25.594;2023-07-02T02:45:08;25.30;19.63;
12542;PMS3003;6337;49.556;25.594;2023-07-02T02:47:38;25.37;21.90;
12542;PMS3003;6337;49.556;25.594;2023-07-02T02:50:06;25.73;19.80;
12542;PMS3003;6337;49.556;25.594;2023-07-02T02:52:35;28.63;19.70;
12542;PMS3003;6337;49.556;25.594;2023-07-02T02:55:03;32.13;20.33;
12542;PMS3003;6337;49.556;25.594;2023-07-02T02:57:31;25.03;19.03;
12542;PMS3003;6337;49.556;25.594;2023-07-02T03:00:03;21.90;19.37;
12542;PMS3003;6337;49.556;25.594;2023-07-02T03:02:36;25.83;19.80;
12542;PMS3003;6337;49.556;25.594;2023-07-02T03:05:04;29.70;21.40;
12542;PMS3003;6337;49.556;25.594;2023-07-02T03:07:34;25.17;20.50;
12542;PMS3003;6337;49.556;25.594;2023-07-02T03:10:02;26.77;20.10;
12542;PMS3003;6337;49.556;25.594;2023-07-02T03:12:29;28.60;20.57;
12542;PMS3003;6337;49.556;25.594;2023-07-02T03:14:57;22.93;19.20;
12542;PMS3003;6337;49.556;25.594;2023-07-02T03:17:26;24.70;19.27;
12542;PMS3003;6337;49.556;25.594;2023-07-02T03:19:55;36.43;22.90;
12542;PMS3003;6337;49.556;25.594;2023-07-02T03:22:22;34.40;22.67;
12542;PMS3003;6337;49.556;25.594;2023-07-02T03:24:50;31.07;22.93;
12542;PMS3003;6337;49.556;25.594;2023-07-02T03:27:18;36.47;21.83;
12542;PMS3003;6337;49.556;25.594;2023-07-02T03:29:47;35.93;22.13;
12542;PMS3003;6337;49.556;25.594;2023-07-02T03:32:15;26.33;21.20;
12542;PMS3003;6337;49.556;25.594;2023-07-02T03:34:47;28.00;20.70;
12542;PMS3003;6337;49.556;25.594;2023-07-02T03:37:15;27.70;22.07;
12542;PMS3003;6337;49.556;25.594;2023-07-02T03:39:43;26.43;21.27;
12542;PMS3003;6337;49.556;25.594;2023-07-02T03:42:12;24.27;20.57;
12542;PMS3003;6337;49.556;25.594;2023-07-02T03:44:42;23.37;18.87;
12542;PMS3003;6337;49.556;25.594;2023-07-02T03:47:11;22.80;17.50;
12542;PMS3003;6337;49.556;25.594;2023-07-02T03:49:41;25.00;18.57;
12542;PMS3003;6337;49.556;25.594;2023-07-02T03:52:13;29.67;18.10;
12542;PMS3003;6337;49.556;25.594;2023-07-02T03:54:42;22.37;18.33;
12542;PMS3003;6337;49.556;25.594;2023-07-02T03:57:11;27.20;19.87;
12542;PMS3003;6337;49.556;25.594;2023-07-02T03:59:38;25.80;20.07;
12542;PMS3003;6337;49.556;25.594;2023-07-02T04:02:06;25.47;19.40;
12542;PMS3003;6337;49.556;25.594;2023-07-02T04:04:35;25.90;19.30;
12542;PMS3003;6337;49.556;25.594;2023-07-02T04:07:03;24.80;20.77;
12542;PMS3003;6337;49.556;25.594;2023-07-02T04:09:33;26.17;20.23;
12542;PMS3003;6337;49.556;25.594;2023-07-02T04:12:00;26.00;19.77;
12542;PMS3003;6337;49.556;25.594;2023-07-02T04:14:28;26.33;21.17;
12542;PMS3003;6337;49.556;25.594;2023-07-02T04:16:55;24.90;18.70;
12542;PMS3003;6337;49.556;25.594;2023-07-02T04:19:23;30.30;20.00;
12542;PMS3003;6337;49.556;25.594;2023-07-02T04:21:51;25.93;19.33;
12542;PMS3003;6337;49.556;25.594;2023-07-02T04:24:19;21.73;17.40;
12542;PMS3003;6337;49.556;25.594;2023-07-02T04:26:49;26.40;17.70;
12542;PMS3003;6337;49.556;25.594;2023-07-02T04:29:17;19.90;16.60;
12542;PMS3003;6337;49.556;25.594;2023-07-02T04:31:45;23.93;17.00;
12542;PMS3003;6337;49.556;25.594;2023-07-02T04:34:14;22.70;15.90;
12542;PMS3003;6337;49.556;25.594;2023-07-02T04:36:42;20.83;16.50;
12542;PMS3003;6337;49.556;25.594;2023-07-02T04:39:12;24.80;16.40;
12542;PMS3003;6337;49.556;25.594;2023-07-02T04:41:42;21.80;17.23;
12542;PMS3003;6337;49.556;25.594;2023-07-02T04:44:15;23.77;18.50;
12542;PMS3003;6337;49.556;25.594;2023-07-02T04:46:43;20.37;16.13;
12542;PMS3003;6337;49.556;25.594;2023-07-02T04:49:21;18.83;13.20;
12542;PMS3003;6337;49.556;25.594;2023-07-02T04:51:52;18.70;13.93;
12542;PMS3003;6337;49.556;25.594;2023-07-02T04:54:20;21.30;14.47;
12542;PMS3003;6337;49.556;25.594;2023-07-02T04:56:48;16.90;13.97;
12542;PMS3003;6337;49.556;25.594;2023-07-02T04:59:25;15.40;12.83;
12542;PMS3003;6337;49.556;25.594;2023-07-02T05:01:56;17.73;13.40;
12542;PMS3003;6337;49.556;25.594;2023-07-02T05:04:24;17.30;15.00;
12542;PMS3003;6337;49.556;25.594;2023-07-02T05:06:53;16.33;14.70;
12542;PMS3003;6337;49.556;25.594;2023-07-02T05:09:21;18.23;14.03;
12542;PMS3003;6337;49.556;25.594;2023-07-02T05:11:49;15.70;12.67;
12542;PMS3003;6337;49.556;25.594;2023-07-02T05:14:18;19.30;13.60;
12542;PMS3003;6337;49.556;25.594;2023-07-02T05:16:55;12.83;11.60;
12542;PMS3003;6337;49.556;25.594;2023-07-02T05:19:23;11.17;10.00;
12542;PMS3003;6337;49.556;25.594;2023-07-02T05:21:54;27.63;10.20;
12542;PMS3003;6337;49.556;25.594;2023-07-02T05:24:22;10.37;9.27;
12542;PMS3003;6337;49.556;25.594;2023-07-02T05:26:50;10.10;9.10;
12542;PMS3003;6337;49.556;25.594;2023-07-02T05:29:19;14.90;9.67;
12542;PMS3003;6337;49.556;25.594;2023-07-02T05:31:48;9.10;8.30;
12542;PMS3003;6337;49.556;25.594;2023-07-02T05:34:19;8.93;8.03;
12542;PMS3003;6337;49.556;25.594;2023-07-02T05:36:47;13.20;8.77;
12542;PMS3003;6337;49.556;25.594;2023-07-02T05:39:16;10.90;9.10;
12542;PMS3003;6337;49.556;25.594;2023-07-02T05:41:45;12.30;9.77;
12542;PMS3003;6337;49.556;25.594;2023-07-02T05:44:13;14.50;10.70;
12542;PMS3003;6337;49.556;25.594;2023-07-02T05:46:48;11.10;8.90;
12542;PMS3003;6337;49.556;25.594;2023-07-02T05:49:26;9.57;7.73;
12542;PMS3003;6337;49.556;25.594;2023-07-02T05:51:55;10.63;9.53;
12542;PMS3003;6337;49.556;25.594;2023-07-02T05:54:24;9.37;8.37;
12542;PMS3003;6337;49.556;25.594;2023-07-02T05:56:52;10.93;9.57;
12542;PMS3003;6337;49.556;25.594;2023-07-02T05:59:20;10.47;8.73;
12542;PMS3003;6337;49.556;25.594;2023-07-02T06:01:48;8.43;7.67;
12542;PMS3003;6337;49.556;25.594;2023-07-02T06:04:16;13.17;9.43;
12542;PMS3003;6337;49.556;25.594;2023-07-02T06:06:46;10.13;9.10;
12542;PMS3003;6337;49.556;25.594;2023-07-02T06:09:15;11.30;10.00;
12542;PMS3003;6337;49.556;25.594;2023-07-02T06:11:46;11.77;8.83;
12542;PMS3003;6337;49.556;25.594;2023-07-02T06:14:13;9.70;8.80;
12542;PMS3003;6337;49.556;25.594;2023-07-02T06:16:49;26.93;10.10;
12542;PMS3003;6337;49.556;25.594;2023-07-02T06:19:17;9.77;8.87;
12542;PMS3003;6337;49.556;25.594;2023-07-02T06:21:51;10.67;9.60;
12542;PMS3003;6337;49.556;25.594;2023-07-02T06:24:20;12.47;8.00;
12542;PMS3003;6337;49.556;25.594;2023-07-02T06:26:48;10.63;9.67;
12542;PMS3003;6337;49.556;25.594;2023-07-02T06:29:16;10.80;9.30;
12542;PMS3003;6337;49.556;25.594;2023-07-02T06:31:44;11.40;10.00;
12542;PMS3003;6337;49.556;25.594;2023-07-02T06:34:11;10.00;8.47;
12542;PMS3003;6337;49.556;25.594;2023-07-02T06:36:39;9.73;8.03;
12542;PMS3003;6337;49.556;25.594;2023-07-02T06:39:10;8.47;7.33;
12542;PMS3003;6337;49.556;25.594;2023-07-02T06:41:38;9.67;8.77;
12542;PMS3003;6337;49.556;25.594;2023-07-02T06:44:06;8.73;7.83;
12542;PMS3003;6337;49.556;25.594;2023-07-02T06:46:34;9.70;8.10;
12542;PMS3003;6337;49.556;25.594;2023-07-02T06:49:03;7.97;7.33;
12542;PMS3003;6337;49.556;25.594;2023-07-02T06:51:31;9.10;7.77;
12542;PMS3003;6337;49.556;25.594;2023-07-02T06:54:00;9.20;8.20;
12542;PMS3003;6337;49.556;25.594;2023-07-02T06:56:29;11.90;7.43;
12542;PMS3003;6337;49.556;25.594;2023-07-02T06:58:57;7.80;7.10;
12542;PMS3003;6337;49.556;25.594;2023-07-02T07:01:25;12.53;7.23;
12542;PMS3003;6337;49.556;25.594;2023-07-02T07:03:52;10.20;7.73;
12542;PMS3003;6337;49.556;25.594;2023-07-02T07:06:25;7.53;6.87;
12542;PMS3003;6337;49.556;25.594;2023-07-02T07:08:53;6.87;6.37;
12542;PMS3003;6337;49.556;25.594;2023-07-02T07:11:20;8.37;7.50;
12542;PMS3003;6337;49.556;25.594;2023-07-02T07:13:50;8.00;7.20;
12542;PMS3003;6337;49.556;25.594;2023-07-02T07:16:23;10.07;8.17;
12542;PMS3003;6337;49.556;25.594;2023-07-02T07:18:51;9.97;6.90;
12542;PMS3003;6337;49.556;25.594;2023-07-02T07:21:19;8.33;7.63;
12542;PMS3003;6337;49.556;25.594;2023-07-02T07:23:52;9.57;8.60;
12542;PMS3003;6337;49.556;25.594;2023-07-02T07:26:20;13.40;8.57;
12542;PMS3003;6337;49.556;25.594;2023-07-02T07:28:47;7.40;6.70;
12542;PMS3003;6337;49.556;25.594;2023-07-02T07:31:17;11.20;7.70;
12542;PMS3003;6337;49.556;25.594;2023-07-02T07:33:47;9.00;8.10;
12542;PMS3003;6337;49.556;25.594;2023-07-02T07:36:15;8.20;7.40;
12542;PMS3003;6337;49.556;25.594;2023-07-02T07:38:42;8.10;7.40;
12542;PMS3003;6337;49.556;25.594;2023-07-02T07:41:11;7.87;7.13;
12542;PMS3003;6337;49.556;25.594;2023-07-02T07:43:38;7.40;6.70;
12542;PMS3003;6337;49.556;25.594;2023-07-02T07:46:06;8.23;6.70;
12542;PMS3003;6337;49.556;25.594;2023-07-02T07:48:37;7.03;6.33;
12542;PMS3003;6337;49.556;25.594;2023-07-02T07:51:05;6.37;5.83;
12542;PMS3003;6337;49.556;25.594;2023-07-02T07:53:33;7.03;6.30;
12542;PMS3003;6337;49.556;25.594;2023-07-02T07:56:05;10.20;7.97;
12542;PMS3003;6337;49.556;25.594;2023-07-02T07:58:32;8.40;7.20;
12542;PMS3003;6337;49.556;25.594;2023-07-02T08:01:01;8.10;7.30;
12542;PMS3003;6337;49.556;25.594;2023-07-02T08:03:32;7.30;6.60;
12542;PMS3003;6337;49.556;25.594;2023-07-02T08:06:01;10.63;6.77;
12542;PMS3003;6337;49.556;25.594;2023-07-02T08:08:29;8.87;6.57;
12542;PMS3003;6337;49.556;25.594;2023-07-02T08:10:57;8.33;7.53;
12542;PMS3003;6337;49.556;25.594;2023-07-02T08:13:29;8.23;7.30;
12542;PMS3003;6337;49.556;25.594;2023-07-02T08:15:57;13.50;8.17;
12542;PMS3003;6337;49.556;25.594;2023-07-02T08:18:25;7.10;6.50;
12542;PMS3003;6337;49.556;25.594;2023-07-02T08:20:53;7.90;6.37;
12542;PMS3003;6337;49.556;25.594;2023-07-02T08:23:22;7.97;7.17;
12542;PMS3003;6337;49.556;25.594;2023-07-02T08:25:49;10.60;7.40;
12542;PMS3003;6337;49.556;25.594;2023-07-02T08:28:19;12.13;7.53;
12542;PMS3003;6337;49.556;25.594;2023-07-02T08:30:48;13.80;7.40;
12542;PMS3003;6337;49.556;25.594;2023-07-02T08:33:28;6.03;5.57;
12542;PMS3003;6337;49.556;25.594;2023-07-02T08:35:58;7.30;6.70;
12542;PMS3003;6337;49.556;25.594;2023-07-02T08:38:31;8.97;8.17;
12542;PMS3003;6337;49.556;25.594;2023-07-02T08:41:02;8.17;7.37;
12542;PMS3003;6337;49.556;25.594;2023-07-02T08:43:29;8.10;7.07;
12542;PMS3003;6337;49.556;25.594;2023-07-02T08:45:57;8.37;7.57;
12542;PMS3003;6337;49.556;25.594;2023-07-02T08:48:28;7.23;5.77;
12542;PMS3003;6337;49.556;25.594;2023-07-02T08:50:55;6.67;5.97;
12542;PMS3003;6337;49.556;25.594;2023-07-02T08:53:26;7.83;5.70;
12542;PMS3003;6337;49.556;25.594;2023-07-02T08:56:00;5.57;5.17;
12542;PMS3003;6337;49.556;25.594;2023-07-02T08:58:30;4.77;4.37;
12542;PMS3003;6337;49.556;25.594;2023-07-02T09:01:07;5.07;4.63;
12542;PMS3003;6337;49.556;25.594;2023-07-02T09:03:35;7.40;5.40;
12542;PMS3003;6337;49.556;25.594;2023-07-02T09:06:04;6.60;3.67;
12542;PMS3003;6337;49.556;25.594;2023-07-02T09:08:31;4.67;4.27;
12542;PMS3003;6337;49.556;25.594;2023-07-02T09:11:16;3.90;3.60;
12542;PMS3003;6337;49.556;25.594;2023-07-02T09:13:45;5.27;3.63;
12542;PMS3003;6337;49.556;25.594;2023-07-02T09:16:24;5.13;4.63;
12542;PMS3003;6337;49.556;25.594;2023-07-02T09:18:57;4.37;3.97;
12542;PMS3003;6337;49.556;25.594;2023-07-02T09:21:26;5.50;4.33;
12542;PMS3003;6337;49.556;25.594;2023-07-02T09:23:54;7.00;4.20;
12542;PMS3003;6337;49.556;25.594;2023-07-02T09:26:23;3.63;3.33;
12542;PMS3003;6337;49.556;25.594;2023-07-02T09:29:00;7.10;3.80;
12542;PMS3003;6337;49.556;25.594;2023-07-02T09:31:29;4.40;4.10;
12542;PMS3003;6337;49.556;25.594;2023-07-02T09:34:01;8.47;4.00;
12542;PMS3003;6337;49.556;25.594;2023-07-02T09:36:30;6.60;4.53;
12542;PMS3003;6337;49.556;25.594;2023-07-02T09:39:04;7.43;4.07;
12542;PMS3003;6337;49.556;25.594;2023-07-02T09:41:35;7.43;4.03;
12542;PMS3003;6337;49.556;25.594;2023-07-02T09:44:12;3.93;3.57;
12542;PMS3003;6337;49.556;25.594;2023-07-02T09:46:45;5.10;3.57;
12542;PMS3003;6337;49.556;25.594;2023-07-02T09:49:19;5.13;4.33;
12542;PMS3003;6337;49.556;25.594;2023-07-02T09:51:49;5.27;4.40;
12542;PMS3003;6337;49.556;25.594;2023-07-02T09:54:18;4.93;4.50;
12542;PMS3003;6337;49.556;25.594;2023-07-02T10:45:55;5.20;4.70;
12542;PMS3003;6337;49.556;25.594;2023-07-02T10:48:25;6.00;4.50;
12542;PMS3003;6337;49.556;25.594;2023-07-02T10:50:52;7.23;3.67;
12542;PMS3003;6337;49.556;25.594;2023-07-02T10:53:34;4.10;3.70;
12542;PMS3003;6337;49.556;25.594;2023-07-02T10:56:02;4.33;3.93;
12542;PMS3003;6337;49.556;25.594;2023-07-02T10:58:30;4.43;2.93;
12542;PMS3003;6337;49.556;25.594;2023-07-02T11:01:00;5.00;3.57;
12542;PMS3003;6337;49.556;25.594;2023-07-02T11:03:28;3.70;3.50;
12542;PMS3003;6337;49.556;25.594;2023-07-02T11:05:56;4.27;3.67;
12542;PMS3003;6337;49.556;25.594;2023-07-02T11:08:34;3.70;3.40;
12542;PMS3003;6337;49.556;25.594;2023-07-02T11:11:07;3.73;3.53;
12542;PMS3003;6337;49.556;25.594;2023-07-02T11:13:43;4.23;3.47;
12542;PMS3003;6337;49.556;25.594;2023-07-02T11:16:24;3.13;2.93;
12542;PMS3003;6337;49.556;25.594;2023-07-02T11:18:54;3.20;2.90;
12542;PMS3003;6337;49.556;25.594;2023-07-02T11:24:38;3.20;2.90;
12542;PMS3003;6337;49.556;25.594;2023-07-02T11:27:06;3.33;3.13;
12542;PMS3003;6337;49.556;25.594;2023-07-02T11:29:34;3.73;3.37;
12542;PMS3003;6337;49.556;25.594;2023-07-02T11:32:08;3.00;2.80;
12542;PMS3003;6337;49.556;25.594;2023-07-02T11:34:37;3.20;3.00;
12542;PMS3003;6337;49.556;25.594;2023-07-02T12:08:30;3.33;3.10;
12542;PMS3003;6337;49.556;25.594;2023-07-02T12:10:57;3.23;3.03;
12542;PMS3003;6337;49.556;25.594;2023-07-02T12:13:26;5.00;3.00;
12542;PMS3003;6337;49.556;25.594;2023-07-02T12:15:56;3.50;3.30;
12542;PMS3003;6337;49.556;25.594;2023-07-02T12:18:23;3.10;2.90;
12542;PMS3003;6337;49.556;25.594;2023-07-02T12:20:56;3.40;3.20;
12542;PMS3003;6337;49.556;25.594;2023-07-02T12:23:24;3.30;3.03;
12542;PMS3003;6337;49.556;25.594;2023-07-02T12:26:01;5.73;3.17;
12542;PMS3003;6337;49.556;25.594;2023-07-02T12:28:30;5.63;4.10;
12542;PMS3003;6337;49.556;25.594;2023-07-02T12:30:58;3.80;3.50;
12542;PMS3003;6337;49.556;25.594;2023-07-02T12:33:28;4.30;3.80;
12542;PMS3003;6337;49.556;25.594;2023-07-02T12:35:55;4.23;3.70;
12542;PMS3003;6337;49.556;25.594;2023-07-02T12:38:29;3.90;3.70;
12542;PMS3003;6337;49.556;25.594;2023-07-02T12:41:12;5.00;4.60;
12542;PMS3003;6337;49.556;25.594;2023-07-02T12:43:45;4.47;4.17;
12542;PMS3003;6337;49.556;25.594;2023-07-02T12:46:12;3.60;3.40;
12542;PMS3003;6337;49.556;25.594;2023-07-02T12:48:55;3.37;3.23;
12542;PMS3003;6337;49.556;25.594;2023-07-02T12:51:24;3.60;3.30;
12542;PMS3003;6337;49.556;25.594;2023-07-02T12:53:51;4.67;4.30;
12542;PMS3003;6337;49.556;25.594;2023-07-02T12:56:21;6.50;4.80;
12542;PMS3003;6337;49.556;25.594;2023-07-02T12:58:52;4.13;3.80;
12542;PMS3003;6337;49.556;25.594;2023-07-02T13:01:20;4.37;4.07;
12542;PMS3003;6337;49.556;25.594;2023-07-02T13:03:53;4.53;4.23;
12542;PMS3003;6337;49.556;25.594;2023-07-02T13:06:33;4.30;4.00;
12542;PMS3003;6337;49.556;25.594;2023-07-02T13:09:05;7.73;3.97;
12542;PMS3003;6337;49.556;25.594;2023-07-02T13:11:37;4.03;3.33;
12542;PMS3003;6337;49.556;25.594;2023-07-02T13:14:05;3.93;3.60;
12542;PMS3003;6337;49.556;25.594;2023-07-02T13:16:34;3.63;3.43;
12542;PMS3003;6337;49.556;25.594;2023-07-02T13:19:01;4.27;3.97;
12542;PMS3003;6337;49.556;25.594;2023-07-02T13:21:29;6.00;4.90;
12542;PMS3003;6337;49.556;25.594;2023-07-02T13:23:58;7.47;4.53;
12542;PMS3003;6337;49.556;25.594;2023-07-02T13:26:29;5.10;4.70;
12542;PMS3003;6337;49.556;25.594;2023-07-02T13:29:00;9.00;4.83;
12542;PMS3003;6337;49.556;25.594;2023-07-02T13:31:28;5.63;5.17;
12542;PMS3003;6337;49.556;25.594;2023-07-02T13:33:57;4.83;4.53;
12542;PMS3003;6337;49.556;25.594;2023-07-02T13:36:25;5.20;4.80;
12542;PMS3003;6337;49.556;25.594;2023-07-02T13:38:53;5.43;4.40;
12542;PMS3003;6337;49.556;25.594;2023-07-02T13:41:21;4.93;4.53;
12542;PMS3003;6337;49.556;25.594;2023-07-02T13:43:49;4.60;4.30;
12542;PMS3003;6337;49.556;25.594;2023-07-02T13:46:19;5.10;4.60;
12542;PMS3003;6337;49.556;25.594;2023-07-02T13:48:48;6.67;4.63;
12542;PMS3003;6337;49.556;25.594;2023-07-02T13:51:15;6.83;5.63;
12542;PMS3003;6337;49.556;25.594;2023-07-02T13:53:44;10.17;5.30;
12542;PMS3003;6337;49.556;25.594;2023-07-02T13:56:13;5.30;4.90;
12542;PMS3003;6337;49.556;25.594;2023-07-02T14:01:31;8.00;5.03;
12542;PMS3003;6337;49.556;25.594;2023-07-02T14:04:01;6.73;4.73;
12542;PMS3003;6337;49.556;25.594;2023-07-02T14:06:31;5.97;5.40;
12542;PMS3003;6337;49.556;25.594;2023-07-02T14:08:59;7.40;4.27;
12542;PMS3003;6337;49.556;25.594;2023-07-02T14:11:28;9.70;5.30;
12542;PMS3003;6337;49.556;25.594;2023-07-02T14:13:58;4.60;4.20;
12542;PMS3003;6337;49.556;25.594;2023-07-02T14:16:41;10.43;4.83;
12542;PMS3003;6337;49.556;25.594;2023-07-02T14:19:11;9.23;4.97;
12542;PMS3003;6337;49.556;25.594;2023-07-02T14:21:40;5.13;4.63;
12542;PMS3003;6337;49.556;25.594;2023-07-02T14:24:10;5.60;5.10;
12542;PMS3003;6337;49.556;25.594;2023-07-02T14:26:38;4.60;4.20;
12542;PMS3003;6337;49.556;25.594;2023-07-02T14:29:06;4.77;4.37;
12542;PMS3003;6337;49.556;25.594;2023-07-02T14:31:35;6.43;4.77;
12542;PMS3003;6337;49.556;25.594;2023-07-02T15:26:28;4.40;4.10;
12542;PMS3003;6337;49.556;25.594;2023-07-02T15:28:56;3.70;3.40;
12542;PMS3003;6337;49.556;25.594;2023-07-02T15:31:24;5.93;3.83;
12542;PMS3003;6337;49.556;25.594;2023-07-02T15:33:51;5.33;3.77;
12542;PMS3003;6337;49.556;25.594;2023-07-02T15:36:18;8.33;3.10;
12542;PMS3003;6337;49.556;25.594;2023-07-02T15:38:46;3.10;2.90;
12542;PMS3003;6337;49.556;25.594;2023-07-02T15:41:15;10.23;3.60;
12542;PMS3003;6337;49.556;25.594;2023-07-02T15:43:44;3.50;2.90;
12542;PMS3003;6337;49.556;25.594;2023-07-02T15:46:12;3.70;3.40;
12542;PMS3003;6337;49.556;25.594;2023-07-02T15:48:39;4.40;3.13;
12542;PMS3003;6337;49.556;25.594;2023-07-02T15:51:07;3.77;3.43;
12542;PMS3003;6337;49.556;25.594;2023-07-02T15:53:35;4.30;3.17;
12542;PMS3003;6337;49.556;25.594;2023-07-02T15:56:03;3.30;2.73;
12542;PMS3003;6337;49.556;25.594;2023-07-02T15:58:31;3.57;2.67;
12542;PMS3003;6337;49.556;25.594;2023-07-02T16:01:07;3.57;2.53;
12542;PMS3003;6337;49.556;25.594;2023-07-02T16:03:34;4.43;4.03;
12542;PMS3003;6337;49.556;25.594;2023-07-02T16:06:02;4.83;2.90;
12542;PMS3003;6337;49.556;25.594;2023-07-02T16:08:29;2.67;2.47;
12542;PMS3003;6337;49.556;25.594;2023-07-02T16:10:57;5.50;2.60;
12542;PMS3003;6337;49.556;25.594;2023-07-02T16:13:25;3.33;3.03;
12542;PMS3003;6337;49.556;25.594;2023-07-02T16:15:52;2.53;2.33;
12542;PMS3003;6337;49.556;25.594;2023-07-02T16:18:21;2.63;2.40;
12542;PMS3003;6337;49.556;25.594;2023-07-02T16:20:54;3.67;3.30;
12542;PMS3003;6337;49.556;25.594;2023-07-02T16:23:21;3.00;2.73;
12542;PMS3003;6337;49.556;25.594;2023-07-02T16:25:52;3.53;3.03;
12542;PMS3003;6337;49.556;25.594;2023-07-02T16:28:19;3.57;2.93;
12542;PMS3003;6337;49.556;25.594;2023-07-02T16:30:47;3.50;3.03;
12542;PMS3003;6337;49.556;25.594;2023-07-02T16:33:15;4.17;3.57;
12542;PMS3003;6337;49.556;25.594;2023-07-02T16:35:44;3.20;2.90;
12542;PMS3003;6337;49.556;25.594;2023-07-02T16:38:12;2.30;2.20;
12542;PMS3003;6337;49.556;25.594;2023-07-02T16:40:39;2.97;2.47;
12542;PMS3003;6337;49.556;25.594;2023-07-02T16:43:07;6.60;3.63;
12542;PMS3003;6337;49.556;25.594;2023-07-02T16:45:34;3.30;3.00;
12542;PMS3003;6337;49.556;25.594;2023-07-02T16:48:03;2.80;2.60;
12542;PMS3003;6337;49.556;25.594;2023-07-02T16:50:30;2.77;2.57;
12542;PMS3003;6337;49.556;25.594;2023-07-02T16:52:59;4.90;2.20;
12542;PMS3003;6337;49.556;25.594;2023-07-02T16:55:27;2.80;2.50;
12542;PMS3003;6337;49.556;25.594;2023-07-02T16:57:56;4.23;3.50;
12542;PMS3003;6337;49.556;25.594;2023-07-02T17:00:24;3.47;3.10;
12542;PMS3003;6337;49.556;25.594;2023-07-02T17:02:51;5.70;4.30;
12542;PMS3003;6337;49.556;25.594;2023-07-02T17:05:19;6.53;3.63;
12542;PMS3003;6337;49.556;25.594;2023-07-02T17:07:47;5.27;3.00;
12542;PMS3003;6337;49.556;25.594;2023-07-02T17:10:16;3.63;2.50;
12542;PMS3003;6337;49.556;25.594;2023-07-02T17:12:44;41.30;4.00;
12542;PMS3003;6337;49.556;25.594;2023-07-02T17:15:11;7.53;4.43;
12542;PMS3003;6337;49.556;25.594;2023-07-02T17:17:40;7.30;2.73;
12542;PMS3003;6337;49.556;25.594;2023-07-02T17:20:08;3.00;2.80;
12542;PMS3003;6337;49.556;25.594;2023-07-02T17:22:36;3.77;3.10;
12542;PMS3003;6337;49.556;25.594;2023-07-02T17:25:03;6.17;3.47;
12542;PMS3003;6337;49.556;25.594;2023-07-02T17:27:33;10.53;7.10;
12542;PMS3003;6337;49.556;25.594;2023-07-02T17:30:03;14.63;5.90;
12542;PMS3003;6337;49.556;25.594;2023-07-02T17:32:30;7.20;6.00;
12542;PMS3003;6337;49.556;25.594;2023-07-02T17:34:58;12.10;4.30;
12542;PMS3003;6337;49.556;25.594;2023-07-02T17:37:25;6.03;4.83;